Latest Weather Observations for Mount William

IDV60801

Issued at 3:05 am EST Thursday 18 September 2014 (issued every 30 minutes, with the page automatically refreshed every 10 minutes)

About weather observations | Map of weather stations | Latest weather observations for VIC | Other Formats
Station Details ID: 079103 Name: MOUNT WILLIAM Lat: -37.30 Lon: 142.60 Height: 1150.0 m
Data from the previous 72 hours. | See also: Recent months at Mount William
Date/Time
EST
Temp
°C
App
Temp
°C
Dew
Point
Rel
Hum
%
Delta-T
°C
Wind Press
QNH
hPa
Press
MSL
hPa
Rain
since 9 am
mm
Dir
 
Spd
km/h
Gust
km/h
Spd
kts
Gust
kts
18/03:00am 0.4 -7.6 0.3 99 0.0 WSW 32 54 17 29 - - 2.0
18/02:30am 0.3 -8.7 0.2 99 0.0 SW 37 59 20 32 - - 2.0
18/02:10am 0.3 -7.9 0.2 99 0.0 SW 33 56 18 30 - - 1.6
18/02:00am 0.3 -7.9 0.2 99 0.0 SW 33 50 18 27 - - 1.6
18/01:30am 0.1 -9.7 0.0 99 0.0 SW 41 59 22 32 - - 1.6
18/01:00am 0.1 -9.3 0.0 99 0.0 SW 39 61 21 33 - - 1.6
18/12:30am 0.1 -8.2 0.0 99 0.0 WSW 33 61 18 33 - - 1.6
18/12:01am 0.1 -8.2 0.0 99 0.0 WSW 33 59 18 32 - - 1.6
18/12:00am 0.2 -7.8 0.1 99 0.0 WSW 32 50 17 27 - - 1.6
 
Date/Time
EST
Temp
°C
App
Temp
°C
Dew
Point
Rel
Hum
%
Delta-T
°C
Wind Press
QNH
hPa
Press
MSL
hPa
Rain
since 9 am
mm
Dir
 
Spd
km/h
Gust
km/h
Spd
kts
Gust
kts
17/11:30pm 0.3 -9.4 0.2 99 0.0 WSW 41 61 22 33 - - 1.6
17/11:00pm 0.2 -8.0 0.1 99 0.0 WSW 33 65 18 35 - - 1.6
17/10:30pm 0.0 -8.3 -0.1 99 0.0 WSW 33 70 18 38 - - 1.6
17/10:00pm 0.1 -8.0 0.0 99 0.0 WSW 32 57 17 31 - - 1.6
17/09:30pm 0.2 -7.5 0.1 99 0.0 W 30 61 16 33 - - 1.6
17/09:02pm 0.3 -7.0 0.2 99 0.0 WSW 28 54 15 29 - - 1.6
17/09:00pm 0.3 -6.6 0.2 99 0.0 WSW 26 54 14 29 - - 1.6
17/08:38pm 0.3 -7.0 0.2 99 0.0 W 28 46 15 25 - - 1.6
17/08:30pm 0.3 -6.6 0.2 99 0.0 WSW 26 43 14 23 - - 1.6
17/08:00pm 0.5 -7.5 0.4 99 0.0 WSW 32 52 17 28 - - 1.6
17/07:30pm 0.6 -7.6 0.5 99 0.0 WSW 33 63 18 34 - - 1.6
17/07:00pm 0.6 -7.6 0.5 99 0.0 WSW 33 57 18 31 - - 1.6
17/06:30pm 0.8 -6.8 0.4 97 0.2 WSW 30 50 16 27 - - 1.6
17/06:00pm 1.1 -6.8 1.0 99 0.0 WSW 32 56 17 30 - - 1.6
17/05:49pm 1.2 -5.9 1.1 99 0.0 WSW 28 46 15 25 - - 1.6
17/05:30pm 1.4 -4.9 1.3 99 0.0 W 24 43 13 23 - - 1.6
17/05:04pm 1.4 -5.7 1.3 99 0.0 W 28 56 15 30 - - 1.6
17/05:00pm 1.5 -4.8 1.4 99 0.0 WSW 24 56 13 30 - - 1.6
17/04:32pm 1.9 -5.1 1.8 99 0.0 WSW 28 50 15 27 - - 1.6
17/04:30pm 1.9 -4.7 1.8 99 0.0 WSW 26 46 14 25 - - 1.6
17/04:00pm 2.3 -4.7 2.2 99 0.0 WSW 28 52 15 28 - - 1.4
17/03:30pm 2.2 -4.8 2.1 99 0.0 W 28 57 15 31 - - 1.4
17/03:07pm 3.6 -3.3 2.7 94 0.4 WSW 28 48 15 26 - - 1.0
17/03:00pm 2.8 -3.3 2.5 98 0.1 W 24 43 13 23 - - 1.0
17/02:48pm 2.4 -4.6 1.7 95 0.3 WSW 28 50 15 27 - - 1.0
17/02:30pm 3.3 -2.7 1.3 87 0.8 W 22 50 12 27 - - 1.0
17/02:00pm 4.0 -1.4 1.2 82 1.2 W 19 35 10 19 - - 1.0
17/01:30pm 4.6 -0.1 0.9 77 1.5 W 15 28 8 15 - - 1.0
17/01:00pm 3.4 -2.2 3.3 99 0.0 W 22 37 12 20 - - 1.0
17/12:31pm 2.0 -5.0 1.9 99 0.0 W 28 52 15 28 - - 1.0
17/12:30pm 1.8 -4.9 1.7 99 0.0 W 26 52 14 28 - - 1.0
17/12:27pm 1.6 -5.5 1.5 99 0.0 WSW 28 52 15 28 - - 1.0
17/12:00pm 2.0 -3.5 1.9 99 0.0 W 20 39 11 21 - - 1.0
17/11:30am 2.3 -2.9 2.2 99 0.0 W 19 33 10 18 - - 0.8
17/11:00am 2.6 -2.2 2.5 99 0.0 W 17 32 9 17 - - 0.8
17/10:30am 1.9 -3.6 1.8 99 0.0 WSW 20 50 11 27 - - 0.6
17/10:00am 2.4 -2.8 2.3 99 0.0 W 19 41 10 22 - - 0.6
17/09:30am 2.1 -3.4 2.0 99 0.0 WSW 20 43 11 23 - - 0.4
17/09:00am 2.1 -2.4 2.0 99 0.0 W 15 33 8 18 - - 4.2
17/08:48am 1.9 -5.1 1.8 99 0.0 WSW 28 54 15 29 - - 4.2
17/08:30am 1.7 -4.6 1.6 99 0.0 W 24 44 13 24 - - 4.2
17/08:00am 1.7 -4.6 1.6 99 0.0 WSW 24 43 13 23 - - 4.2
17/07:30am 1.6 -5.9 1.5 99 0.0 W 30 52 16 28 - - 4.2
17/07:23am 1.7 -5.4 1.6 99 0.0 WSW 28 48 15 26 - - 4.2
17/07:00am 1.7 -4.2 1.6 99 0.0 W 22 43 12 23 - - 4.2
17/06:30am 1.8 -4.1 1.7 99 0.0 WSW 22 41 12 22 - - 4.2
17/06:00am 1.7 -4.2 1.6 99 0.0 W 22 46 12 25 - - 4.0
17/05:30am 1.6 -6.2 1.5 99 0.0 WSW 32 54 17 29 - - 4.0
17/05:00am 1.6 -6.2 1.5 99 0.0 WSW 32 52 17 28 - - 4.0
17/04:32am 1.6 -5.9 1.5 99 0.0 WSW 30 48 16 26 - - 4.0
17/04:30am 1.6 -6.2 1.5 99 0.0 WSW 32 48 17 26 - - 4.0
17/04:00am 1.4 -6.5 1.3 99 0.0 WSW 32 50 17 27 - - 4.0
17/03:31am 1.7 -6.1 1.6 99 0.0 WSW 32 52 17 28 - - 3.6
17/03:30am 1.7 -6.1 1.6 99 0.0 WSW 32 48 17 26 - - 3.6
17/03:09am 2.1 -5.3 2.0 99 0.0 WSW 30 56 16 30 - - 3.6
17/03:00am 2.3 -3.1 2.2 99 0.0 WSW 20 43 11 23 - - 3.2
17/02:30am 2.4 -3.0 2.3 99 0.0 WSW 20 41 11 22 - - 2.8
17/02:22am 2.5 -4.4 2.4 99 0.0 WSW 28 48 15 26 - - 2.8
17/02:00am 2.5 -4.4 2.4 99 0.0 W 28 46 15 25 - - 2.4
17/01:50am 2.6 -4.3 2.5 99 0.0 WSW 28 54 15 29 - - 1.8
17/01:30am 2.8 -3.3 2.7 99 0.0 WSW 24 41 13 22 - - 1.4
17/01:00am 3.0 -3.8 2.9 99 0.0 WSW 28 46 15 25 - - 1.0
17/12:30am 3.1 -3.0 3.0 99 0.0 W 24 35 13 19 - - 0.2
17/12:00am 3.0 -2.3 2.9 99 0.0 W 20 33 11 18 - - 0.2
 
Date/Time
EST
Temp
°C
App
Temp
°C
Dew
Point
Rel
Hum
%
Delta-T
°C
Wind Press
QNH
hPa
Press
MSL
hPa
Rain
since 9 am
mm
Dir
 
Spd
km/h
Gust
km/h
Spd
kts
Gust
kts
16/11:30pm 3.2 -1.5 3.1 99 0.0 WSW 17 37 9 20 - - 0.2
16/11:00pm 3.2 -0.4 3.1 99 0.0 W 11 24 6 13 - - 0.0
16/10:30pm 3.3 0.1 3.2 99 0.0 W 9 22 5 12 - - 0.0
16/10:00pm 3.3 0.7 3.2 99 0.0 N 6 11 3 6 - - 0.0
16/09:30pm 3.4 0.8 3.3 99 0.0 NNW 6 9 3 5 - - 0.0
16/09:00pm 3.5 -0.4 3.4 99 0.0 W 13 26 7 14 - - 0.0
16/08:30pm 3.6 0.1 3.5 99 0.0 W 11 22 6 12 - - 0.0
16/08:00pm 3.6 0.1 3.5 99 0.0 W 11 19 6 10 - - 0.0
16/07:30pm 3.9 1.2 3.8 99 0.0 WNW 7 15 4 8 - - 0.0
16/07:00pm 4.2 0.4 4.1 99 0.0 W 13 28 7 15 - - 0.0
16/06:30pm 4.4 1.4 4.3 99 0.0 NW 9 20 5 11 - - 0.0
16/06:00pm 4.6 1.6 4.3 98 0.1 W 9 19 5 10 - - 0.0
16/05:30pm 5.1 2.2 4.4 95 0.3 NW 9 17 5 9 - - 0.0
16/05:00pm 5.9 1.3 3.6 85 1.0 W 17 35 9 19 - - 0.0
16/04:30pm 7.4 3.4 2.9 73 2.0 W 13 22 7 12 - - 0.0
16/04:00pm 8.1 4.5 5.0 81 1.5 W 13 26 7 14 - - 0.0
16/03:30pm 7.3 4.6 7.2 99 0.0 WNW 11 19 6 10 - - 0.0
16/03:00pm 7.5 3.7 7.4 99 0.1 W 17 30 9 16 - - 0.0
16/02:30pm 7.1 2.2 7.0 99 0.0 W 22 43 12 23 - - 0.0
16/02:00pm 6.1 -0.5 6.0 99 0.0 WSW 30 52 16 28 - - 0.0
16/01:50pm 6.7 -0.4 6.6 99 0.0 WSW 33 54 18 29 - - 0.0
16/01:30pm 6.0 -2.3 5.9 99 0.0 WSW 39 54 21 29 - - 0.0
16/01:00pm 6.0 -1.6 5.9 99 0.0 WSW 35 44 19 24 - - 0.0
16/12:46pm 4.8 -3.0 4.7 99 0.0 WSW 35 54 19 29 - - 0.0
16/12:30pm 4.7 -3.9 4.6 99 0.0 WSW 39 54 21 29 - - 0.0
16/12:07pm 4.4 -4.3 4.3 99 0.0 WSW 39 59 21 32 - - 0.0
16/12:00pm 4.3 -4.8 4.2 99 0.0 WSW 41 57 22 31 - - 0.0
16/11:43am 4.1 -4.6 4.0 99 0.0 WSW 39 59 21 32 - - 0.0
16/11:30am 4.1 -4.6 4.0 99 0.0 WSW 39 52 21 28 - - 0.0
16/11:02am 4.1 -3.3 4.0 99 0.0 SW 32 50 17 27 - - 0.0
16/11:00am 4.3 -2.7 4.2 99 0.0 WSW 30 46 16 25 - - 0.0
16/10:30am 4.0 -3.6 3.9 99 0.0 SW 33 50 18 27 - - 0.0
16/10:01am 4.1 -2.5 4.0 99 0.0 SW 28 48 15 26 - - 0.0
16/10:00am 4.1 -2.9 4.0 99 0.0 SW 30 48 16 26 - - 0.0
16/09:30am 4.1 -3.9 4.0 99 0.0 SW 35 48 19 26 - - 0.0
16/09:00am 4.0 -3.4 3.9 99 0.0 SW 32 50 17 27 - - 0.8
16/08:30am 4.0 -4.0 3.9 99 0.0 SW 35 57 19 31 - - 0.8
16/08:00am 4.3 -4.4 4.2 99 0.0 SW 39 61 21 33 - - 0.8
16/07:30am 4.5 -4.1 4.4 99 0.0 SW 39 57 21 31 - - 0.8
16/07:00am 4.5 -3.4 4.4 99 0.0 SW 35 59 19 32 - - 0.6
16/06:31am 4.5 -3.8 4.4 99 0.0 SW 37 57 20 31 - - 0.6
16/06:30am 4.5 -4.1 4.4 99 0.0 SW 39 57 21 31 - - 0.6
16/06:01am 4.7 -5.2 4.6 99 0.0 SW 46 67 25 36 - - 0.6
16/06:00am 4.7 -5.6 4.6 99 0.0 SW 48 65 26 35 - - 0.6
16/05:30am 4.7 -7.1 4.6 99 0.0 SW 56 74 30 40 - - 0.6
16/05:00am 5.0 -6.8 4.9 99 0.0 SW 56 78 30 42 - - 0.6
16/04:30am 5.2 -6.5 5.1 99 0.0 SW 56 76 30 41 - - 0.4
16/04:02am 5.3 -6.4 5.2 99 0.0 SW 56 78 30 42 - - 0.4
16/04:00am 5.3 -6.4 5.2 99 0.0 SW 56 70 30 38 - - 0.4
16/03:30am 5.1 -6.9 5.0 99 0.0 SW 57 76 31 41 - - 0.0
16/03:00am 5.2 -5.4 5.1 99 0.0 SW 50 78 27 42 - - 0.0
16/02:30am 5.3 -4.0 5.2 99 0.0 SSW 43 65 23 35 - - 0.0
16/02:03am 5.3 -5.3 5.2 99 0.0 SW 50 70 27 38 - - 0.0
16/02:00am 5.3 -4.9 5.2 99 0.0 SW 48 65 26 35 - - 0.0
16/01:38am 5.4 -3.1 5.3 99 0.0 SW 39 57 21 31 - - 0.0
16/01:30am 5.4 -3.5 5.3 99 0.0 SW 41 56 22 30 - - 0.0
16/01:21am 5.4 -2.7 5.3 99 0.0 SW 37 56 20 30 - - 0.0
16/01:00am 5.5 -0.1 5.4 99 0.0 SW 24 33 13 18 - - 0.0
16/12:30am 7.0 1.1 5.8 92 0.6 S 26 32 14 17 - - 0.0
16/12:00am 7.2 2.7 6.1 93 0.5 SSW 19 22 10 12 - - 0.0
 
Date/Time
EST
Temp
°C
App
Temp
°C
Dew
Point
Rel
Hum
%
Delta-T
°C
Wind Press
QNH
hPa
Press
MSL
hPa
Rain
since 9 am
mm
Dir
 
Spd
km/h
Gust
km/h
Spd
kts
Gust
kts
15/11:30pm 7.3 3.6 6.1 92 0.6 SSE 15 19 8 10 - - 0.0
15/11:00pm 7.8 5.3 6.4 91 0.7 ESE 9 15 5 8 - - 0.0
15/10:30pm 7.7 4.0 6.2 90 0.7 E 15 20 8 11 - - 0.0
15/10:00pm 7.5 4.1 6.1 91 0.7 E 13 22 7 12 - - 0.0
15/09:30pm 7.6 4.2 6.1 90 0.7 ESE 13 19 7 10 - - 0.0
15/09:00pm 7.6 3.5 6.1 90 0.7 SE 17 26 9 14 - - 0.0
15/08:30pm 7.4 3.0 6.5 94 0.4 SE 19 22 10 12 - - 0.0
15/08:00pm 7.4 4.1 6.5 94 0.4 S 13 19 7 10 - - 0.0
15/07:30pm 8.3 5.0 6.6 89 0.8 SSW 13 15 7 8 - - 0.0
15/07:00pm 8.3 4.4 5.2 81 1.5 SW 15 20 8 11 - - 0.0
15/06:30pm 9.1 5.8 4.7 74 2.1 ESE 11 17 6 9 - - 0.0
15/06:00pm 10.0 5.7 3.5 64 3.0 NE 15 19 8 10 - - 0.0
15/05:30pm 10.5 6.7 4.0 64 3.1 NNE 13 19 7 10 - - 0.0
15/05:00pm 11.3 7.9 4.1 61 3.4 NNE 11 17 6 9 - - 0.0
15/04:30pm 12.2 8.1 4.2 58 3.9 NNE 15 20 8 11 - - 0.0
15/04:00pm 13.7 9.1 3.8 51 4.8 NNE 17 22 9 12 - - 0.0
15/03:30pm 13.3 9.2 4.2 54 4.4 NNE 15 22 8 12 - - 0.0
15/03:00pm 11.8 6.7 3.3 56 4.0 NNE 19 32 10 17 - - 0.0
15/02:30pm 12.2 5.8 3.2 54 4.3 NNE 26 35 14 19 - - 0.0
15/02:00pm 11.5 4.9 4.0 60 3.6 NNE 28 43 15 23 - - 0.0
15/01:30pm 12.0 5.6 5.4 64 3.3 NNE 28 35 15 19 - - 0.0
15/01:00pm 12.4 4.8 6.0 65 3.2 NE 35 43 19 23 - - 0.0
15/12:30pm 11.1 3.4 5.4 68 2.8 NE 35 43 19 23 - - 0.0
15/12:00pm 10.4 2.5 4.5 67 2.8 NE 35 50 19 27 - - 0.0
15/11:30am 10.2 0.7 4.1 66 2.9 NE 43 56 23 30 - - 0.0
15/11:00am 9.8 1.2 4.6 70 2.5 NE 39 48 21 26 - - 0.0
15/10:30am 8.8 -0.1 3.0 67 2.7 NNE 39 52 21 28 - - 0.0
15/10:02am 9.3 -0.7 1.9 60 3.3 NNE 44 65 24 35 - - 0.0
15/10:00am 9.5 -0.2 2.6 62 3.1 NNE 43 56 23 30 - - 0.0
15/09:30am 9.2 -1.5 2.3 62 3.1 NE 48 61 26 33 - - 0.0
15/09:00am 8.2 -1.9 1.8 64 2.8 NE 44 56 24 30 - - 0.6
15/08:30am 7.9 0.1 2.6 69 2.4 NE 33 43 18 23 - - 0.6
15/08:00am 8.5 -2.3 1.9 63 2.9 NE 48 59 26 32 - - 0.6
15/07:30am 7.8 -1.9 2.7 70 2.3 NE 43 52 23 28 - - 0.6
15/07:00am 7.3 -2.0 2.8 73 2.0 NE 41 52 22 28 - - 0.6
15/06:30am 6.5 -3.1 3.3 80 1.4 NE 43 54 23 29 - - 0.6
15/06:00am 6.5 -3.0 3.7 82 1.3 NE 43 54 23 29 - - 0.6
15/05:30am 6.1 -3.4 3.9 86 1.0 NE 43 56 23 30 - - 0.6
15/05:00am 6.3 -2.8 4.0 85 1.1 NE 41 56 22 30 - - 0.6
15/04:30am 6.3 -1.6 4.1 86 1.0 NNE 35 48 19 26 - - 0.6
15/04:00am 6.1 -0.5 4.3 88 0.8 NE 28 37 15 20 - - 0.6
15/03:30am 6.4 0.2 4.4 87 0.9 NNE 26 32 14 17 - - 0.4

Other Formats:

Comma delimited format used in spreadsheet applications
http://www.bom.gov.au/fwo/IDV60801/IDV60801.94833.axf

JavaScript Object Notation format (JSON) in row-major order
http://www.bom.gov.au/fwo/IDV60801/IDV60801.94833.json